createdAt,value
2022-10-19T00:01:45.599Z,102017.50
2022-10-19T00:04:13.482Z,102018.63
2022-10-19T00:06:42.737Z,102017.84
2022-10-19T00:09:12.266Z,102011.78
2022-10-19T00:11:41.546Z,102012.81
2022-10-19T00:14:27.822Z,102017.41
2022-10-19T00:16:58.231Z,102012.81
2022-10-19T00:19:26.941Z,102003.88
2022-10-19T00:21:54.988Z,102012.03
2022-10-19T00:24:22.847Z,102013.75
2022-10-19T00:26:50.822Z,102010.03
2022-10-19T00:29:18.698Z,102018.72
2022-10-19T00:31:48.161Z,102012.22
2022-10-19T00:34:16.024Z,101999.47
2022-10-19T00:36:43.944Z,102008.31
2022-10-19T00:39:14.326Z,102006.44
2022-10-19T00:41:42.429Z,102000.00
2022-10-19T00:44:43.268Z,102004.34
2022-10-19T00:47:12.523Z,101995.59
2022-10-19T00:49:41.733Z,101991.00
2022-10-19T00:52:11.261Z,101984.91
2022-10-19T00:54:39.967Z,101981.41
2022-10-19T00:57:08.502Z,101962.88
2022-10-19T00:59:36.511Z,101960.97
2022-10-19T01:02:05.452Z,101960.19
2022-10-19T01:04:35.836Z,101961.91
2022-10-19T01:07:03.854Z,101976.31
2022-10-19T01:09:31.789Z,101975.09
2022-10-19T01:12:01.652Z,101948.34
2022-10-19T01:14:33.104Z,101967.19
2022-10-19T01:17:03.734Z,101972.84
2022-10-19T01:19:46.204Z,101985.78
2022-10-19T01:22:18.857Z,101963.25
2022-10-19T01:27:37.646Z,101972.09
2022-10-19T01:30:13.192Z,101955.94
2022-10-19T01:32:47.653Z,101966.66
2022-10-19T01:35:18.971Z,101943.38
2022-10-19T01:37:49.635Z,101943.25
2022-10-19T01:40:21.486Z,101937.88
2022-10-19T01:42:51.555Z,101929.81
2022-10-19T01:45:22.330Z,101931.56
2022-10-19T01:47:54.300Z,101931.56
2022-10-19T01:50:25.821Z,101934.25
2022-10-19T01:52:53.677Z,101936.16
2022-10-19T01:55:21.586Z,101931.56
2022-10-19T01:57:52.276Z,101940.56
2022-10-19T02:00:21.516Z,101934.25
2022-10-19T02:02:50.859Z,101926.28
2022-10-19T02:05:19.642Z,101920.06
2022-10-19T02:07:49.698Z,101913.91
2022-10-19T02:10:17.636Z,101914.13
2022-10-19T02:12:45.570Z,101907.94
2022-10-19T02:15:15.399Z,101914.19
2022-10-19T02:17:47.051Z,101907.59
2022-10-19T02:20:15.195Z,101909.50
2022-10-19T02:22:43.164Z,101922.00
2022-10-19T02:25:11.173Z,101933.72
2022-10-19T02:27:39.733Z,101939.91
2022-10-19T02:30:09.295Z,101929.22
2022-10-19T02:32:37.186Z,101929.22
2022-10-19T02:35:07.161Z,101925.75
2022-10-19T02:40:08.584Z,101913.91
2022-10-19T02:42:38.458Z,101908.72
2022-10-19T02:45:08.948Z,101914.00
2022-10-19T02:47:37.389Z,101889.94
2022-10-19T02:50:08.028Z,101897.84
2022-10-19T02:52:37.918Z,101896.03
2022-10-19T02:55:06.566Z,101888.06
2022-10-19T02:57:34.595Z,101892.56
2022-10-19T03:00:03.690Z,101888.13
2022-10-19T03:02:31.572Z,101888.91
2022-10-19T03:04:59.472Z,101878.13
2022-10-19T03:07:28.734Z,101887.00
2022-10-19T03:09:56.582Z,101880.75
2022-10-19T03:12:24.447Z,101886.03
2022-10-19T03:14:52.333Z,101879.88
2022-10-19T03:17:20.274Z,101851.69
2022-10-19T03:19:48.180Z,101867.38
2022-10-19T03:22:16.125Z,101852.09
2022-10-19T03:24:45.400Z,101852.88
2022-10-19T03:27:13.254Z,101852.75
2022-10-19T03:29:41.151Z,101852.75
2022-10-19T03:32:09.018Z,101856.31
2022-10-19T03:34:36.837Z,101867.88
2022-10-19T03:37:04.715Z,101875.88
2022-10-19T03:39:32.613Z,101875.00
2022-10-19T03:42:01.941Z,101868.91
2022-10-19T03:44:29.800Z,101861.81
2022-10-19T03:46:57.695Z,101853.91
2022-10-19T03:49:25.573Z,101852.25
2022-10-19T03:51:53.489Z,101845.06
2022-10-19T03:54:23.711Z,101836.22
2022-10-19T03:56:55.007Z,101830.94
2022-10-19T03:59:24.435Z,101819.66
2022-10-19T04:01:52.280Z,101830.50
2022-10-19T04:04:20.505Z,101823.53
2022-10-19T04:06:49.953Z,101825.44
2022-10-19T04:09:18.628Z,101830.06
2022-10-19T04:11:46.680Z,101828.31
2022-10-19T04:14:22.782Z,101842.63
2022-10-19T04:17:02.259Z,101833.63
2022-10-19T04:19:30.273Z,101830.16
2022-10-19T04:21:58.163Z,101839.06
2022-10-19T04:24:26.011Z,101827.47
2022-10-19T04:26:55.027Z,101816.69
2022-10-19T04:29:26.357Z,101816.69
2022-10-19T04:31:57.547Z,101800.44
2022-10-19T04:34:26.818Z,101796.88
2022-10-19T04:36:54.808Z,101802.47
2022-10-19T04:39:22.733Z,101805.06
2022-10-19T04:41:50.587Z,101808.53
2022-10-19T04:44:18.525Z,101795.16
2022-10-19T04:46:46.460Z,101793.25
2022-10-19T04:49:16.521Z,101778.91
2022-10-19T04:51:48.814Z,101783.53
2022-10-19T04:54:16.699Z,101766.41
2022-10-19T04:56:44.599Z,101757.75
2022-10-19T04:59:12.474Z,101763.16
2022-10-19T05:01:46.353Z,101744.84
2022-10-19T05:04:15.305Z,101761.41
2022-10-19T05:06:43.189Z,101752.28
2022-10-19T05:09:12.599Z,101754.03
2022-10-19T05:11:40.547Z,101742.38
2022-10-19T05:14:08.754Z,101742.28
2022-10-19T05:16:36.646Z,101735.97
2022-10-19T05:19:04.533Z,101737.78
2022-10-19T05:21:32.444Z,101731.50
2022-10-19T05:24:00.367Z,101725.97
2022-10-19T05:26:30.329Z,101717.97
2022-10-19T05:29:01.463Z,101713.44
2022-10-19T05:31:30.407Z,101714.31
2022-10-19T05:33:58.531Z,101703.38
2022-10-19T05:36:27.208Z,101688.47
2022-10-19T05:38:56.176Z,101680.38
2022-10-19T05:41:24.313Z,101681.44
2022-10-19T05:43:55.267Z,101679.91
2022-10-19T05:46:23.192Z,101679.72
2022-10-19T05:48:51.127Z,101673.56
2022-10-19T05:51:21.051Z,101678.84
2022-10-19T05:53:48.976Z,101677.97
2022-10-19T05:56:17.839Z,101679.91
2022-10-19T05:58:45.716Z,101689.00
2022-10-19T06:01:15.118Z,101661.34
2022-10-19T06:03:43.638Z,101661.22
2022-10-19T06:06:11.640Z,101655.09
2022-10-19T06:08:39.788Z,101641.63
2022-10-19T06:11:08.297Z,101639.91
2022-10-19T06:13:36.385Z,101652.59
2022-10-19T06:16:04.357Z,101653.25
2022-10-19T06:18:33.611Z,101648.75
2022-10-19T06:21:03.028Z,101654.25
2022-10-19T06:23:31.105Z,101637.13
2022-10-19T06:25:59.009Z,101636.34
2022-10-19T06:28:26.884Z,101633.56
2022-10-19T06:30:54.901Z,101620.22
2022-10-19T06:33:22.817Z,101639.03
2022-10-19T06:35:52.028Z,101632.91
2022-10-19T06:38:19.919Z,101641.84
2022-10-19T06:40:49.070Z,101644.59
2022-10-19T06:43:16.987Z,101650.84
2022-10-19T06:45:44.913Z,101637.13
2022-10-19T06:48:12.833Z,101624.81
2022-10-19T06:50:40.767Z,101625.59
2022-10-19T06:53:10.045Z,101614.22
2022-10-19T06:55:38.003Z,101616.09
2022-10-19T06:58:05.859Z,101616.09
2022-10-19T07:00:33.827Z,101608.19
2022-10-19T07:03:01.777Z,101617.78
2022-10-19T07:05:29.705Z,101618.50
2022-10-19T07:07:58.565Z,101602.25
2022-10-19T07:10:28.010Z,101592.25
2022-10-19T07:12:57.442Z,101590.44
2022-10-19T07:15:25.460Z,101586.00
2022-10-19T07:17:54.313Z,101587.81
2022-10-19T07:20:22.241Z,101585.06
2022-10-19T07:22:50.134Z,101599.44
2022-10-19T07:25:18.216Z,101579.84
2022-10-19T07:27:47.507Z,101591.59
2022-10-19T07:30:15.471Z,101598.50
2022-10-19T07:32:46.939Z,101600.22
2022-10-19T07:35:15.328Z,101611.84
2022-10-19T07:37:43.251Z,101611.69
2022-10-19T07:40:12.942Z,101611.41
2022-10-19T07:42:40.920Z,101609.47
2022-10-19T07:45:11.145Z,101594.00
2022-10-19T07:47:39.033Z,101593.13
2022-10-19T07:50:07.241Z,101595.72
2022-10-19T07:52:36.925Z,101586.91
2022-10-19T07:55:05.679Z,101579.47
2022-10-19T07:57:33.684Z,101586.78
2022-10-19T08:00:02.084Z,101588.72
2022-10-19T08:02:39.647Z,101579.75
2022-10-19T08:05:19.451Z,101583.41
2022-10-19T08:07:47.424Z,101578.22
2022-10-19T08:10:15.372Z,101566.59
2022-10-19T08:12:43.973Z,101556.50
2022-10-19T08:15:11.902Z,101569.28
2022-10-19T08:17:41.182Z,101588.03
2022-10-19T08:20:09.552Z,101579.94
2022-10-19T08:22:37.596Z,101577.06
2022-10-19T08:25:06.160Z,101576.13
2022-10-19T08:27:34.196Z,101565.91
2022-10-19T08:30:02.123Z,101566.25
2022-10-19T08:32:30.077Z,101569.31
2022-10-19T08:34:59.401Z,101565.56
2022-10-19T08:37:43.786Z,101563.63
2022-10-19T08:40:17.799Z,101541.03
2022-10-19T08:42:50.526Z,101555.06
2022-10-19T08:45:32.690Z,101562.16
2022-10-19T08:48:04.467Z,101550.34
2022-10-19T08:50:36.498Z,101545.06
2022-10-19T08:53:05.926Z,101555.13
2022-10-19T08:55:39.433Z,101553.19
2022-10-19T08:58:13.300Z,101547.75
2022-10-19T09:00:43.124Z,101553.13
2022-10-19T09:03:23.113Z,101542.84
2022-10-19T09:06:09.189Z,101568.53
2022-10-19T09:08:39.990Z,101554.28
2022-10-19T09:11:07.954Z,101561.03
2022-10-19T09:13:46.952Z,101534.09
2022-10-19T09:16:25.914Z,101525.03
2022-10-19T09:21:31.100Z,101514.84
2022-10-19T09:24:07.225Z,101511.75
2022-10-19T09:26:37.130Z,101507.53
2022-10-19T09:29:07.615Z,101508.28
2022-10-19T09:31:40.540Z,101508.00
2022-10-19T09:34:13.293Z,101488.84
2022-10-19T09:36:50.541Z,101487.88
2022-10-19T09:39:18.964Z,101490.81
2022-10-19T09:41:47.077Z,101492.25
2022-10-19T09:44:14.937Z,101490.63
2022-10-19T09:46:48.595Z,101485.66
2022-10-19T09:49:16.564Z,101484.34
2022-10-19T09:51:51.851Z,101488.69
2022-10-19T09:54:27.623Z,101479.63
2022-10-19T09:56:56.235Z,101474.31
2022-10-19T09:59:26.012Z,101471.75
2022-10-19T10:04:31.485Z,101471.53
2022-10-19T10:07:00.735Z,101458.81
2022-10-19T10:09:30.063Z,101457.75
2022-10-19T10:11:58.810Z,101447.59
2022-10-19T10:14:28.769Z,101430.13
2022-10-19T10:16:56.878Z,101420.66
2022-10-19T10:19:28.292Z,101421.94
2022-10-19T10:21:57.779Z,101411.38
2022-10-19T10:24:27.312Z,101416.34
2022-10-19T10:26:55.826Z,101414.81
2022-10-19T10:29:24.890Z,101412.88
2022-10-19T10:31:53.968Z,101402.00
2022-10-19T10:34:45.429Z,101405.19
2022-10-19T10:37:17.043Z,101404.81
2022-10-19T10:39:46.337Z,101379.59
2022-10-19T10:42:16.361Z,101368.34
2022-10-19T10:44:46.590Z,101365.00
2022-10-19T10:47:15.462Z,101340.06
2022-10-19T10:49:43.588Z,101349.22
2022-10-19T10:52:12.121Z,101332.78
2022-10-19T10:54:40.079Z,101334.25
2022-10-19T10:57:13.919Z,101307.88
2022-10-19T10:59:54.613Z,101296.63
2022-10-19T11:02:36.026Z,101288.00
2022-10-19T11:05:07.363Z,101288.63
2022-10-19T11:07:35.893Z,101289.75
2022-10-19T11:10:09.861Z,101287.00
2022-10-19T11:12:40.745Z,101262.47
2022-10-19T11:15:14.919Z,101254.56
2022-10-19T11:17:47.668Z,101252.44
2022-10-19T11:20:16.171Z,101237.25
2022-10-19T11:22:46.028Z,101240.03
2022-10-19T11:25:28.695Z,101235.91
2022-10-19T11:28:05.828Z,101230.72
2022-10-19T11:30:36.182Z,101222.84
2022-10-19T11:33:08.060Z,101203.44
2022-10-19T11:35:46.951Z,101212.03
2022-10-19T11:38:27.433Z,101202.22
2022-10-19T11:41:20.268Z,101203.16
2022-10-19T11:43:57.374Z,101184.25
2022-10-19T11:46:27.014Z,101179.72
2022-10-19T11:49:04.570Z,101174.06
2022-10-19T11:51:35.910Z,101161.09
2022-10-19T11:54:14.700Z,101169.09
2022-10-19T11:57:02.460Z,101156.31
2022-10-19T11:59:38.885Z,101145.38
2022-10-19T12:02:14.858Z,101142.09
2022-10-19T12:04:53.141Z,101147.09
2022-10-19T12:07:37.872Z,101147.25
2022-10-19T12:10:13.576Z,101138.44
2022-10-19T12:12:42.243Z,101115.38
2022-10-19T12:15:24.835Z,101107.31
2022-10-19T12:17:53.641Z,101098.06
2022-10-19T12:20:28.648Z,101100.47
2022-10-19T12:22:56.752Z,101076.31
2022-10-19T12:25:24.662Z,101086.59
2022-10-19T12:27:52.638Z,101094.50
2022-10-19T12:30:22.974Z,101089.13
2022-10-19T12:33:02.955Z,101088.19
2022-10-19T12:35:49.048Z,101074.75
2022-10-19T12:38:20.062Z,101086.06
2022-10-19T12:40:50.930Z,101064.22
2022-10-19T12:43:21.283Z,101055.38
2022-10-19T12:45:52.487Z,101052.66
2022-10-19T12:48:22.197Z,101052.84
2022-10-19T12:51:15.195Z,101053.66
2022-10-19T12:53:44.467Z,101055.19
2022-10-19T12:56:17.455Z,101032.19
2022-10-19T12:58:52.999Z,101020.50
2022-10-19T13:01:24.553Z,101008.47
2022-10-19T13:03:54.462Z,101013.91
2022-10-19T13:06:32.064Z,100997.94
2022-10-19T13:09:01.035Z,101002.06
2022-10-19T13:11:29.087Z,101003.06
2022-10-19T13:14:07.527Z,101011.38
2022-10-19T13:17:00.796Z,101013.69
2022-10-19T13:19:28.718Z,101013.41
2022-10-19T13:22:19.001Z,101007.81
2022-10-19T13:24:49.250Z,101002.63
2022-10-19T13:27:39.070Z,100995.78
2022-10-19T13:30:29.921Z,100970.94
2022-10-19T13:32:59.163Z,100956.41
2022-10-19T13:35:31.607Z,100946.69
2022-10-19T13:38:32.802Z,100947.41
2022-10-19T13:41:08.417Z,100942.41
2022-10-19T13:43:38.638Z,100931.44
2022-10-19T13:46:11.537Z,100923.00
2022-10-19T13:49:11.182Z,100931.72
2022-10-19T13:51:42.450Z,100911.72
2022-10-19T13:54:18.918Z,100902.97
2022-10-19T13:56:53.133Z,100912.88
2022-10-19T13:59:43.899Z,100914.09
2022-10-19T14:02:46.162Z,100893.56
2022-10-19T14:05:39.310Z,100886.53
2022-10-19T14:08:11.238Z,100896.41
2022-10-19T14:13:27.221Z,100875.69
2022-10-19T14:15:56.009Z,100863.94
2022-10-19T14:18:25.684Z,100853.97
2022-10-19T14:21:02.519Z,100851.09
2022-10-19T14:23:31.327Z,100849.78
2022-10-19T14:26:00.653Z,100850.72
2022-10-19T14:28:28.657Z,100844.63
2022-10-19T14:30:57.921Z,100843.91
2022-10-19T14:33:26.081Z,100843.78
2022-10-19T14:35:54.072Z,100837.66
2022-10-19T14:38:27.600Z,100831.38
2022-10-19T14:40:56.066Z,100834.25
2022-10-19T14:43:24.995Z,100834.69
2022-10-19T14:46:14.103Z,100830.69
2022-10-19T14:48:42.935Z,100834.25
2022-10-19T14:51:25.767Z,100824.28
2022-10-19T14:53:55.972Z,100836.13
2022-10-19T14:56:24.970Z,100830.56
2022-10-19T14:58:55.945Z,100836.28
2022-10-19T15:01:23.880Z,100829.69
2022-10-19T15:03:51.945Z,100817.44
2022-10-19T15:06:22.560Z,100822.56
2022-10-19T15:08:51.833Z,100825.00
2022-10-19T15:11:26.142Z,100813.72
2022-10-19T15:13:59.628Z,100820.97
2022-10-19T15:16:51.632Z,100829.41
2022-10-19T15:19:22.947Z,100827.53
2022-10-19T15:22:13.129Z,100834.25
2022-10-19T15:24:41.449Z,100820.41
2022-10-19T15:27:11.973Z,100816.38
2022-10-19T15:29:40.287Z,100805.28
2022-10-19T15:32:15.727Z,100814.41
2022-10-19T15:34:43.727Z,100826.88
2022-10-19T15:37:17.950Z,100839.13
2022-10-19T15:39:45.950Z,100825.28
2022-10-19T15:42:33.007Z,100812.16
2022-10-19T15:45:01.247Z,100825.50
2022-10-19T15:47:29.144Z,100805.84
2022-10-19T15:49:59.441Z,100815.22
2022-10-19T15:52:27.857Z,100821.19
2022-10-19T15:54:56.644Z,100801.69
2022-10-19T15:57:28.513Z,100798.53
2022-10-19T15:59:56.762Z,100804.06
2022-10-19T16:02:25.387Z,100810.72
2022-10-19T16:04:53.727Z,100805.63
2022-10-19T16:07:25.964Z,100796.19
2022-10-19T16:09:54.345Z,100772.69
2022-10-19T16:12:22.451Z,100781.22
2022-10-19T16:14:51.716Z,100802.38
2022-10-19T16:17:19.600Z,100804.94
2022-10-19T16:19:47.840Z,100782.72
2022-10-19T16:22:15.868Z,100794.53
2022-10-19T16:24:43.760Z,100787.41
2022-10-19T16:27:15.081Z,100818.41
2022-10-19T16:29:43.257Z,100824.78
2022-10-19T16:32:12.592Z,100838.59
2022-10-19T16:34:41.359Z,100818.97
2022-10-19T16:37:09.309Z,100818.97
2022-10-19T16:39:37.268Z,100810.38
2022-10-19T16:42:05.276Z,100816.03
2022-10-19T16:44:33.174Z,100795.69
2022-10-19T16:47:01.140Z,100772.72
2022-10-19T16:49:30.596Z,100751.53
2022-10-19T16:51:58.471Z,100743.69
2022-10-19T16:54:27.007Z,100734.72
2022-10-19T16:56:55.669Z,100730.09
2022-10-19T16:59:23.748Z,100726.28
2022-10-19T17:01:51.651Z,100734.53
2022-10-19T17:04:19.660Z,100713.91
2022-10-19T17:06:48.997Z,100696.09
2022-10-19T17:09:40.741Z,100689.88
2022-10-19T17:12:05.306Z,100687.44
2022-10-19T17:14:33.290Z,100687.56
2022-10-19T17:17:01.148Z,100701.34
2022-10-19T17:19:29.129Z,100721.22
2022-10-19T17:21:59.169Z,100727.47
2022-10-19T17:24:27.276Z,100741.00
2022-10-19T17:26:55.163Z,100748.94
2022-10-19T17:29:23.141Z,100758.53
2022-10-19T17:31:51.019Z,100768.31
2022-10-19T17:34:19.007Z,100784.16
2022-10-19T17:36:47.248Z,100792.97
2022-10-19T17:41:45.914Z,100807.94
2022-10-19T17:44:13.817Z,100805.69
2022-10-19T17:46:41.752Z,100813.94
2022-10-19T17:49:09.917Z,100812.81
2022-10-19T17:51:37.967Z,100812.81
2022-10-19T17:54:07.671Z,100800.28
2022-10-19T17:56:37.012Z,100810.13
2022-10-19T17:59:04.913Z,100805.69
2022-10-19T18:01:32.862Z,100797.72
2022-10-19T18:04:00.915Z,100780.78
2022-10-19T18:06:29.560Z,100787.19
2022-10-19T18:08:57.796Z,100795.44
2022-10-19T18:11:26.730Z,100807.34
2022-10-19T18:13:56.933Z,100817.28
2022-10-19T18:16:25.864Z,100815.44
2022-10-19T18:18:55.247Z,100814.59
2022-10-19T18:21:24.524Z,100813.88
2022-10-19T18:23:53.404Z,100813.00
2022-10-19T18:26:22.833Z,100811.31
2022-10-19T18:28:50.960Z,100794.47
2022-10-19T18:31:21.343Z,100790.34
2022-10-19T18:33:49.369Z,100797.13
2022-10-19T18:36:17.253Z,100810.16
2022-10-19T18:38:45.156Z,100813.38
2022-10-19T18:43:50.486Z,100812.78
2022-10-19T18:46:20.526Z,100813.91
2022-10-19T18:48:48.549Z,100800.69
2022-10-19T18:51:16.666Z,100808.88
2022-10-19T18:53:44.785Z,100810.84
2022-10-19T18:56:13.580Z,100803.75
2022-10-19T18:58:41.540Z,100812.84
2022-10-19T19:01:10.992Z,100819.22
2022-10-19T19:03:41.005Z,100823.53
2022-10-19T19:06:09.851Z,100819.97
2022-10-19T19:08:38.572Z,100818.13
2022-10-19T19:11:13.075Z,100804.63
2022-10-19T19:13:41.234Z,100806.31
2022-10-19T19:16:09.651Z,100802.66
2022-10-19T19:18:37.537Z,100814.56
2022-10-19T19:21:13.915Z,100818.22
2022-10-19T19:23:41.770Z,100834.31
2022-10-19T19:26:10.334Z,100836.16
2022-10-19T19:28:41.452Z,100834.31
2022-10-19T19:31:10.240Z,100835.28
2022-10-19T19:33:38.100Z,100841.41
2022-10-19T19:36:08.083Z,100834.03
2022-10-19T19:38:36.008Z,100818.22
2022-10-19T19:41:04.956Z,100834.56
2022-10-19T19:43:32.876Z,100844.63
2022-10-19T19:46:03.306Z,100854.81
2022-10-19T19:48:34.157Z,100850.66
2022-10-19T19:51:02.220Z,100843.56
2022-10-19T19:53:31.506Z,100834.09
2022-10-19T19:55:59.404Z,100821.72
2022-10-19T19:58:27.421Z,100823.97
2022-10-19T20:00:55.304Z,100821.75
2022-10-19T20:03:23.208Z,100821.88
2022-10-19T20:05:51.057Z,100813.94
2022-10-19T20:08:19.140Z,100811.22
2022-10-19T20:10:48.747Z,100814.03
2022-10-19T20:13:16.594Z,100806.06
2022-10-19T20:15:44.672Z,100809.63
2022-10-19T20:18:12.540Z,100807.91
2022-10-19T20:20:41.416Z,100800.81
2022-10-19T20:23:09.312Z,100797.63
2022-10-19T20:25:37.689Z,100788.13
2022-10-19T20:28:06.973Z,100780.31
2022-10-19T20:30:34.984Z,100777.84
2022-10-19T20:33:02.892Z,100783.53
2022-10-19T20:35:30.780Z,100785.72
2022-10-19T20:37:58.641Z,100774.44
2022-10-19T20:40:26.594Z,100780.72
2022-10-19T20:42:56.367Z,100785.47
2022-10-19T20:45:25.606Z,100788.31
2022-10-19T20:47:53.925Z,100792.97
2022-10-19T20:50:22.066Z,100791.22
2022-10-19T20:52:50.012Z,100803.75
2022-10-19T20:55:20.064Z,100801.66
2022-10-19T20:57:47.944Z,100804.13
2022-10-19T21:00:16.670Z,100800.19
2022-10-19T21:02:46.488Z,100819.56
2022-10-19T21:05:15.008Z,100825.53
2022-10-19T21:07:42.965Z,100818.09
2022-10-19T21:10:11.149Z,100821.38
2022-10-19T21:12:39.022Z,100820.31
2022-10-19T21:15:07.697Z,100812.41
2022-10-19T21:17:35.637Z,100810.00
2022-10-19T21:20:05.057Z,100827.41
2022-10-19T21:22:39.076Z,100824.09
2022-10-19T21:25:07.669Z,100819.06
2022-10-19T21:27:35.748Z,100822.03
2022-10-19T21:30:03.960Z,100817.84
2022-10-19T21:32:31.839Z,100810.09
2022-10-19T21:34:59.719Z,100809.38
2022-10-19T21:37:29.905Z,100803.38
2022-10-19T21:39:57.729Z,100815.91
2022-10-19T21:42:25.646Z,100812.44
2022-10-19T21:44:57.203Z,100807.19
2022-10-19T21:47:29.113Z,100813.56
2022-10-19T21:49:56.973Z,100808.28
2022-10-19T21:52:24.901Z,100812.94
2022-10-19T21:54:54.517Z,100821.03
2022-10-19T21:57:22.444Z,100828.16
2022-10-19T21:59:50.338Z,100838.81
2022-10-19T22:02:18.182Z,100835.97
2022-10-19T22:04:46.263Z,100848.25
2022-10-19T22:07:14.154Z,100833.78
2022-10-19T22:09:42.026Z,100831.94
2022-10-19T22:12:11.341Z,100834.66
2022-10-19T22:14:39.253Z,100842.59
2022-10-19T22:17:07.146Z,100837.34
2022-10-19T22:19:35.062Z,100849.00
2022-10-19T22:22:02.919Z,100852.66
2022-10-19T22:24:30.798Z,100853.66
2022-10-19T22:26:58.685Z,100859.03
2022-10-19T22:29:27.989Z,100865.41
2022-10-19T22:31:55.893Z,100869.94
2022-10-19T22:34:23.921Z,100835.72
2022-10-19T22:36:51.757Z,100854.75
2022-10-19T22:39:19.593Z,100855.94
2022-10-19T22:41:47.500Z,100854.47
2022-10-19T22:44:15.352Z,100843.94
2022-10-19T22:46:44.572Z,100847.00
2022-10-19T22:49:12.499Z,100856.41
2022-10-19T22:51:40.386Z,100844.16
2022-10-19T22:54:08.269Z,100853.47
2022-10-19T22:56:36.156Z,100852.00
2022-10-19T22:59:04.733Z,100843.28
2022-10-19T23:01:32.667Z,100839.84
2022-10-19T23:04:01.962Z,100836.56
2022-10-19T23:06:29.810Z,100847.53
2022-10-19T23:08:57.737Z,100829.72
2022-10-19T23:11:25.633Z,100834.63
2022-10-19T23:13:53.492Z,100825.81
2022-10-19T23:16:21.383Z,100827.03
2022-10-19T23:18:49.309Z,100838.16
2022-10-19T23:21:18.529Z,100829.56
2022-10-19T23:23:46.383Z,100825.66
2022-10-19T23:26:15.159Z,100822.44
2022-10-19T23:28:44.413Z,100823.66
2022-10-19T23:31:13.077Z,100835.13
2022-10-19T23:33:40.946Z,100837.06
2022-10-19T23:36:09.863Z,100832.03
2022-10-19T23:38:39.096Z,100826.13
2022-10-19T23:41:07.284Z,100818.28
2022-10-19T23:46:07.887Z,100819.09
2022-10-19T23:48:35.884Z,100815.78
2022-10-19T23:51:04.697Z,100816.00
2022-10-19T23:53:35.727Z,100821.56
2022-10-19T23:56:09.045Z,100803.84
2022-10-19T23:58:36.955Z,100807.63
